Waco, TX

12:31 AM CDT on September 15, 2014 (GMT -0500)
Waco Regional | Change Station
CLOSE
Current Station
Airport
Location: Waco,
Elevation: 509 ft
Nearby Weather Stations

Elev 509 ft 31.62 °N, 97.23 °W | Updated 1 hour ago

Clear
Clear
69 °F
Feels Like 69 °F
N
0
Wind Variable Wind from North

Today
High -- | Low -- °F
--% Chance of Precip.
Yesterday
High -- | Low -- °F
Precip. -- in
7:12 AM 7:34 PM
Waning Gibbous, 59% visible
Pressure 30.13 in
Visibility 10.0 miles
Clouds Clear
Dew Point 65 °F
Humidity 87%
Rainfall 0.00 in
Snow Depth Not available.
UV 0 out of 12
Pollen 9.50 out of 12
Ozone Good
PM2.5 Good
Flu Activity Not available.
METAR KACT 150351Z 00000KT 10SM CLR 21/18 A3014 RMK AO2 SLP202 T02060183 $

More Conditions Fewer Conditions

Pressure 30.13 in
Visibility 10.0 miles
Clouds Clear
Dew Point 65 °F
Humidity 87%
Rainfall 0.00 in
Snow Depth Not available.
UV 0 out of 12
Pollen 9.50 out of 12
Ozone Good
PM2.5 Good
Flu Activity Not available.
METAR KACT 150351Z 00000KT 10SM CLR 21/18 A3014 RMK AO2 SLP202 T02060183 $

More Conditions Fewer Conditions

Nowcast | as of 11:20 PM CDT on September 14, 2014

A few light rain showers will affect portions of North Texas...mainly northwest of a Comanche...to Mineral Wells...to Gainesville line. This activity is moving northeast at 20 mph and rainfall amounts will only average a trace to a few hundredths.

×

10-Day Weather Forecast

Almanac

Astronomy

Sep. 15, 2014 Rise Set
Actual Time 7:12 AM CDT 7:34 PM CDT
Civil Twilight 6:48 AM CDT 7:58 PM CDT
Nautical Twilight 6:19 AM CDT 8:27 PM CDT
Astronomical Twilight 5:51 AM CDT 8:56 PM CDT
Moon No Moon Rise 1:52 PM CDT
Length of Visible Light 13h 10m
Length of Day
12h 21m
Tomorrow will be 1m 55s shorter.
Waning Gibbous, 59% of the Moon is Illuminated
Today
Waning Gibbous
Sep 15
Last Quarter
Sep 24
New
Oct 1
First Quarter
Oct 8
Full

Today's Extremes

State Highs State Lows

Community

WunderPhotos

Upload Photos

1,753,415 photos uploaded!

WunderBlogs® & News

By Dr. Jeff Masters
Director of Meteorology, Weather Underground
By Kari Strenfel
Meteorologist, Weather Underground
By Christopher C. Burt
Weather Historian, Weather Underground
September 15, 2014
September 15, 2014
September 15, 2014

Nearby

Air Quality

  Air Quality AQ Index Pollutant
Yesterday Good
OZONE
Yesterday Good
PM2.5
Current Good
OZONE
Current Good
PM2.5
Sunday Moderate
OZONE
Sunday Good
PM10
Monday Moderate
OZONE
Monday Good
PM10
Tuesday Moderate
OZONE
Tuesday Good
PM10

Snow Depth

Station Depth Elevation
No new snow has been reported.

Earthquake Activity

City Distance Mag. Time & Date
Arlington, Texas 76 miles 2.5 6:03 PM CDT
2014-09-12
Minimum magnitude displayed is 2.5.

Coastal Water Temperatures

Place Temperature
No Stations Reporting

Nearby Weather Stations